sensor_id;sensor_type;location;lat;lon;timestamp;temperature;humidity
17954;DHT22;9102;53.548;9.926;2024-02-26T00:00:41;5.10;99.90
17954;DHT22;9102;53.548;9.926;2024-02-26T00:03:08;5.00;99.90
17954;DHT22;9102;53.548;9.926;2024-02-26T00:05:35;4.90;99.90
17954;DHT22;9102;53.548;9.926;2024-02-26T00:08:04;4.90;99.90
17954;DHT22;9102;53.548;9.926;2024-02-26T00:10:31;4.90;99.90
17954;DHT22;9102;53.548;9.926;2024-02-26T00:12:57;4.90;99.90
17954;DHT22;9102;53.548;9.926;2024-02-26T00:15:26;4.90;99.90
17954;DHT22;9102;53.548;9.926;2024-02-26T00:17:53;4.70;99.90
17954;DHT22;9102;53.548;9.926;2024-02-26T00:20:20;4.80;99.90
17954;DHT22;9102;53.548;9.926;2024-02-26T00:22:47;4.80;99.90
17954;DHT22;9102;53.548;9.926;2024-02-26T00:25:14;4.80;99.90
17954;DHT22;9102;53.548;9.926;2024-02-26T00:27:40;4.70;99.90
17954;DHT22;9102;53.548;9.926;2024-02-26T00:30:10;4.70;99.90
17954;DHT22;9102;53.548;9.926;2024-02-26T00:32:39;4.70;99.90
17954;DHT22;9102;53.548;9.926;2024-02-26T00:35:06;4.60;99.90
17954;DHT22;9102;53.548;9.926;2024-02-26T00:37:35;4.70;99.90
17954;DHT22;9102;53.548;9.926;2024-02-26T00:40:03;4.60;99.90
17954;DHT22;9102;53.548;9.926;2024-02-26T00:42:30;4.60;99.90
17954;DHT22;9102;53.548;9.926;2024-02-26T00:44:57;4.60;99.90
17954;DHT22;9102;53.548;9.926;2024-02-26T00:47:23;4.60;99.90
17954;DHT22;9102;53.548;9.926;2024-02-26T00:49:52;4.50;99.90
17954;DHT22;9102;53.548;9.926;2024-02-26T00:52:18;4.50;99.90
17954;DHT22;9102;53.548;9.926;2024-02-26T00:54:45;4.50;99.90
17954;DHT22;9102;53.548;9.926;2024-02-26T00:57:12;4.60;99.90
17954;DHT22;9102;53.548;9.926;2024-02-26T00:59:39;4.60;99.90
17954;DHT22;9102;53.548;9.926;2024-02-26T01:02:06;4.70;99.90
17954;DHT22;9102;53.548;9.926;2024-02-26T01:04:32;4.60;99.90
17954;DHT22;9102;53.548;9.926;2024-02-26T01:07:02;4.40;99.90
17954;DHT22;9102;53.548;9.926;2024-02-26T01:09:29;4.40;99.90
17954;DHT22;9102;53.548;9.926;2024-02-26T01:11:56;4.40;99.90
17954;DHT22;9102;53.548;9.926;2024-02-26T01:14:23;4.40;99.90
17954;DHT22;9102;53.548;9.926;2024-02-26T01:16:50;4.40;99.90
17954;DHT22;9102;53.548;9.926;2024-02-26T01:19:17;4.50;99.90
17954;DHT22;9102;53.548;9.926;2024-02-26T01:21:43;4.30;99.90
17954;DHT22;9102;53.548;9.926;2024-02-26T01:24:12;4.30;99.90
17954;DHT22;9102;53.548;9.926;2024-02-26T01:26:39;4.30;99.90
17954;DHT22;9102;53.548;9.926;2024-02-26T01:29:06;4.30;99.90
17954;DHT22;9102;53.548;9.926;2024-02-26T01:31:32;4.30;99.90
17954;DHT22;9102;53.548;9.926;2024-02-26T01:34:00;4.30;99.90
17954;DHT22;9102;53.548;9.926;2024-02-26T01:36:27;4.20;99.90
17954;DHT22;9102;53.548;9.926;2024-02-26T01:38:54;4.20;99.90
17954;DHT22;9102;53.548;9.926;2024-02-26T01:41:22;4.20;99.90
17954;DHT22;9102;53.548;9.926;2024-02-26T01:43:49;4.20;99.90
17954;DHT22;9102;53.548;9.926;2024-02-26T01:46:16;4.10;99.90
17954;DHT22;9102;53.548;9.926;2024-02-26T01:48:44;4.10;99.90
17954;DHT22;9102;53.548;9.926;2024-02-26T01:51:14;4.10;99.90
17954;DHT22;9102;53.548;9.926;2024-02-26T01:53:43;4.10;99.90
17954;DHT22;9102;53.548;9.926;2024-02-26T01:56:10;4.20;99.90
17954;DHT22;9102;53.548;9.926;2024-02-26T01:58:39;4.20;99.90
17954;DHT22;9102;53.548;9.926;2024-02-26T02:01:06;4.20;99.90
17954;DHT22;9102;53.548;9.926;2024-02-26T02:03:33;4.20;99.90
17954;DHT22;9102;53.548;9.926;2024-02-26T02:06:01;4.30;99.90
17954;DHT22;9102;53.548;9.926;2024-02-26T02:08:28;4.20;99.90
17954;DHT22;9102;53.548;9.926;2024-02-26T02:10:55;4.20;99.90
17954;DHT22;9102;53.548;9.926;2024-02-26T02:13:23;4.20;99.90
17954;DHT22;9102;53.548;9.926;2024-02-26T02:15:51;4.20;99.90
17954;DHT22;9102;53.548;9.926;2024-02-26T02:18:19;4.20;99.90
17954;DHT22;9102;53.548;9.926;2024-02-26T02:20:47;4.10;99.90
17954;DHT22;9102;53.548;9.926;2024-02-26T02:23:14;4.00;99.90
17954;DHT22;9102;53.548;9.926;2024-02-26T02:25:41;4.00;99.90
17954;DHT22;9102;53.548;9.926;2024-02-26T02:28:10;3.90;99.90
17954;DHT22;9102;53.548;9.926;2024-02-26T02:30:38;4.00;99.90
17954;DHT22;9102;53.548;9.926;2024-02-26T02:33:07;3.90;99.90
17954;DHT22;9102;53.548;9.926;2024-02-26T02:35:34;3.80;99.90
17954;DHT22;9102;53.548;9.926;2024-02-26T02:38:03;3.80;99.90
17954;DHT22;9102;53.548;9.926;2024-02-26T02:40:30;3.80;99.90
17954;DHT22;9102;53.548;9.926;2024-02-26T02:42:57;3.90;99.90
17954;DHT22;9102;53.548;9.926;2024-02-26T02:45:24;3.80;99.90
17954;DHT22;9102;53.548;9.926;2024-02-26T02:47:51;3.80;99.90
17954;DHT22;9102;53.548;9.926;2024-02-26T02:50:17;3.70;99.90
17954;DHT22;9102;53.548;9.926;2024-02-26T02:52:44;3.70;99.90
17954;DHT22;9102;53.548;9.926;2024-02-26T02:55:13;3.70;99.90
17954;DHT22;9102;53.548;9.926;2024-02-26T02:57:40;3.70;99.90
17954;DHT22;9102;53.548;9.926;2024-02-26T03:00:09;3.70;99.90
17954;DHT22;9102;53.548;9.926;2024-02-26T03:02:36;3.70;99.90
17954;DHT22;9102;53.548;9.926;2024-02-26T03:05:03;3.60;99.90
17954;DHT22;9102;53.548;9.926;2024-02-26T03:07:30;3.70;99.90
17954;DHT22;9102;53.548;9.926;2024-02-26T03:09:57;3.70;99.90
17954;DHT22;9102;53.548;9.926;2024-02-26T03:12:26;3.70;99.90
17954;DHT22;9102;53.548;9.926;2024-02-26T03:14:53;3.70;99.90
17954;DHT22;9102;53.548;9.926;2024-02-26T03:17:21;3.70;99.90
17954;DHT22;9102;53.548;9.926;2024-02-26T03:19:49;3.70;99.90
17954;DHT22;9102;53.548;9.926;2024-02-26T03:22:18;3.70;99.90
17954;DHT22;9102;53.548;9.926;2024-02-26T03:24:45;3.70;99.90
17954;DHT22;9102;53.548;9.926;2024-02-26T03:27:12;3.70;99.90
17954;DHT22;9102;53.548;9.926;2024-02-26T03:29:41;3.80;99.90
17954;DHT22;9102;53.548;9.926;2024-02-26T03:32:08;3.70;99.90
17954;DHT22;9102;53.548;9.926;2024-02-26T03:34:35;3.70;99.90
17954;DHT22;9102;53.548;9.926;2024-02-26T03:37:01;3.70;99.90
17954;DHT22;9102;53.548;9.926;2024-02-26T03:39:28;3.60;99.90
17954;DHT22;9102;53.548;9.926;2024-02-26T03:41:55;3.70;99.90
17954;DHT22;9102;53.548;9.926;2024-02-26T03:44:22;3.70;99.90
17954;DHT22;9102;53.548;9.926;2024-02-26T03:46:50;3.70;99.90
17954;DHT22;9102;53.548;9.926;2024-02-26T03:49:17;3.70;99.90
17954;DHT22;9102;53.548;9.926;2024-02-26T03:51:44;3.70;99.90
17954;DHT22;9102;53.548;9.926;2024-02-26T03:54:11;3.70;99.90
17954;DHT22;9102;53.548;9.926;2024-02-26T03:56:38;3.70;99.90
17954;DHT22;9102;53.548;9.926;2024-02-26T03:59:05;3.70;99.90
17954;DHT22;9102;53.548;9.926;2024-02-26T04:01:32;3.60;99.90
17954;DHT22;9102;53.548;9.926;2024-02-26T04:04:00;3.70;99.90
17954;DHT22;9102;53.548;9.926;2024-02-26T04:06:27;3.70;99.90
17954;DHT22;9102;53.548;9.926;2024-02-26T04:08:54;3.60;99.90
17954;DHT22;9102;53.548;9.926;2024-02-26T04:11:20;3.60;99.90
17954;DHT22;9102;53.548;9.926;2024-02-26T04:13:47;3.60;99.90
17954;DHT22;9102;53.548;9.926;2024-02-26T04:16:17;3.60;99.90
17954;DHT22;9102;53.548;9.926;2024-02-26T04:18:44;3.60;99.90
17954;DHT22;9102;53.548;9.926;2024-02-26T04:21:16;3.60;99.90
17954;DHT22;9102;53.548;9.926;2024-02-26T04:23:45;3.60;99.90
17954;DHT22;9102;53.548;9.926;2024-02-26T04:26:12;3.60;99.90
17954;DHT22;9102;53.548;9.926;2024-02-26T04:28:39;3.60;99.90
17954;DHT22;9102;53.548;9.926;2024-02-26T04:31:05;3.60;99.90
17954;DHT22;9102;53.548;9.926;2024-02-26T04:33:34;3.60;99.90
17954;DHT22;9102;53.548;9.926;2024-02-26T04:36:01;3.60;99.90
17954;DHT22;9102;53.548;9.926;2024-02-26T04:38:32;3.70;99.90
17954;DHT22;9102;53.548;9.926;2024-02-26T04:40:59;3.70;99.90
17954;DHT22;9102;53.548;9.926;2024-02-26T04:43:26;3.70;99.90
17954;DHT22;9102;53.548;9.926;2024-02-26T04:45:53;3.60;99.90
17954;DHT22;9102;53.548;9.926;2024-02-26T04:48:22;3.60;99.90
17954;DHT22;9102;53.548;9.926;2024-02-26T04:50:49;3.60;99.90
17954;DHT22;9102;53.548;9.926;2024-02-26T04:53:16;3.60;99.90
17954;DHT22;9102;53.548;9.926;2024-02-26T04:55:44;3.60;99.90
17954;DHT22;9102;53.548;9.926;2024-02-26T04:58:11;3.60;99.90
17954;DHT22;9102;53.548;9.926;2024-02-26T05:00:38;3.60;99.90
17954;DHT22;9102;53.548;9.926;2024-02-26T05:03:04;3.60;99.90
17954;DHT22;9102;53.548;9.926;2024-02-26T05:05:31;3.60;99.90
17954;DHT22;9102;53.548;9.926;2024-02-26T05:07:58;3.60;99.90
17954;DHT22;9102;53.548;9.926;2024-02-26T05:10:25;3.60;99.90
17954;DHT22;9102;53.548;9.926;2024-02-26T05:12:53;3.60;99.90
17954;DHT22;9102;53.548;9.926;2024-02-26T05:15:20;3.60;99.90
17954;DHT22;9102;53.548;9.926;2024-02-26T05:17:47;3.60;99.90
17954;DHT22;9102;53.548;9.926;2024-02-26T05:20:14;3.60;99.90
17954;DHT22;9102;53.548;9.926;2024-02-26T05:22:40;3.60;99.90
17954;DHT22;9102;53.548;9.926;2024-02-26T05:25:08;3.60;99.90
17954;DHT22;9102;53.548;9.926;2024-02-26T05:27:35;3.60;99.90
17954;DHT22;9102;53.548;9.926;2024-02-26T05:30:04;3.60;99.90
17954;DHT22;9102;53.548;9.926;2024-02-26T05:32:31;3.60;99.90
17954;DHT22;9102;53.548;9.926;2024-02-26T05:34:57;3.50;99.90
17954;DHT22;9102;53.548;9.926;2024-02-26T05:37:24;3.50;99.90
17954;DHT22;9102;53.548;9.926;2024-02-26T05:39:52;3.50;99.90
17954;DHT22;9102;53.548;9.926;2024-02-26T05:42:19;3.40;99.90
17954;DHT22;9102;53.548;9.926;2024-02-26T05:44:45;3.40;99.90
17954;DHT22;9102;53.548;9.926;2024-02-26T05:47:13;3.40;99.90
17954;DHT22;9102;53.548;9.926;2024-02-26T05:49:41;3.40;99.90
17954;DHT22;9102;53.548;9.926;2024-02-26T05:52:08;3.30;99.90
17954;DHT22;9102;53.548;9.926;2024-02-26T05:54:35;3.30;99.90
17954;DHT22;9102;53.548;9.926;2024-02-26T05:57:02;3.30;99.90
17954;DHT22;9102;53.548;9.926;2024-02-26T05:59:28;3.20;99.90
17954;DHT22;9102;53.548;9.926;2024-02-26T06:01:55;3.20;99.90
17954;DHT22;9102;53.548;9.926;2024-02-26T06:04:24;3.20;99.90
17954;DHT22;9102;53.548;9.926;2024-02-26T06:06:50;3.20;99.90
17954;DHT22;9102;53.548;9.926;2024-02-26T06:09:17;3.20;99.90
17954;DHT22;9102;53.548;9.926;2024-02-26T06:11:44;3.10;99.90
17954;DHT22;9102;53.548;9.926;2024-02-26T06:14:11;3.10;99.90
17954;DHT22;9102;53.548;9.926;2024-02-26T06:16:40;3.10;99.90
17954;DHT22;9102;53.548;9.926;2024-02-26T06:19:06;3.10;99.90
17954;DHT22;9102;53.548;9.926;2024-02-26T06:21:34;3.10;99.90
17954;DHT22;9102;53.548;9.926;2024-02-26T06:24:01;3.20;99.90
17954;DHT22;9102;53.548;9.926;2024-02-26T06:26:28;3.10;99.90
17954;DHT22;9102;53.548;9.926;2024-02-26T06:28:55;3.10;99.90
17954;DHT22;9102;53.548;9.926;2024-02-26T06:31:22;3.10;99.90
17954;DHT22;9102;53.548;9.926;2024-02-26T06:33:49;3.10;99.90
17954;DHT22;9102;53.548;9.926;2024-02-26T06:36:16;3.10;99.90
17954;DHT22;9102;53.548;9.926;2024-02-26T06:38:45;3.10;99.90
17954;DHT22;9102;53.548;9.926;2024-02-26T06:41:12;3.10;99.90
17954;DHT22;9102;53.548;9.926;2024-02-26T06:43:38;3.10;99.90
17954;DHT22;9102;53.548;9.926;2024-02-26T06:46:05;3.10;99.90
17954;DHT22;9102;53.548;9.926;2024-02-26T06:48:32;3.10;99.90
17954;DHT22;9102;53.548;9.926;2024-02-26T06:50:59;3.10;99.90
17954;DHT22;9102;53.548;9.926;2024-02-26T06:53:26;3.10;99.90
17954;DHT22;9102;53.548;9.926;2024-02-26T06:55:54;3.10;99.90
17954;DHT22;9102;53.548;9.926;2024-02-26T06:58:21;3.10;99.90
17954;DHT22;9102;53.548;9.926;2024-02-26T07:00:48;3.10;99.90
17954;DHT22;9102;53.548;9.926;2024-02-26T07:03:15;3.10;99.90
17954;DHT22;9102;53.548;9.926;2024-02-26T07:05:42;3.10;99.90
17954;DHT22;9102;53.548;9.926;2024-02-26T07:08:10;3.10;99.90
17954;DHT22;9102;53.548;9.926;2024-02-26T07:10:37;3.10;99.90
17954;DHT22;9102;53.548;9.926;2024-02-26T07:13:05;3.20;99.90
17954;DHT22;9102;53.548;9.926;2024-02-26T07:15:32;3.10;99.90
17954;DHT22;9102;53.548;9.926;2024-02-26T07:17:59;3.10;99.90
17954;DHT22;9102;53.548;9.926;2024-02-26T07:20:28;3.10;99.90
17954;DHT22;9102;53.548;9.926;2024-02-26T07:22:56;3.10;99.90
17954;DHT22;9102;53.548;9.926;2024-02-26T07:25:23;3.10;99.90
17954;DHT22;9102;53.548;9.926;2024-02-26T07:27:49;3.10;99.90
17954;DHT22;9102;53.548;9.926;2024-02-26T07:30:18;3.20;99.90
17954;DHT22;9102;53.548;9.926;2024-02-26T07:32:45;3.30;99.90
17954;DHT22;9102;53.548;9.926;2024-02-26T07:35:12;3.30;99.90
17954;DHT22;9102;53.548;9.926;2024-02-26T07:37:39;3.40;99.90
17954;DHT22;9102;53.548;9.926;2024-02-26T07:40:07;3.60;99.90
17954;DHT22;9102;53.548;9.926;2024-02-26T07:42:34;3.60;99.90
17954;DHT22;9102;53.548;9.926;2024-02-26T07:45:02;3.60;99.90
17954;DHT22;9102;53.548;9.926;2024-02-26T07:47:30;3.70;99.90
17954;DHT22;9102;53.548;9.926;2024-02-26T07:50:00;3.90;99.90
17954;DHT22;9102;53.548;9.926;2024-02-26T07:52:26;3.80;99.90
17954;DHT22;9102;53.548;9.926;2024-02-26T07:54:58;3.80;99.90
17954;DHT22;9102;53.548;9.926;2024-02-26T07:57:25;3.90;99.90
17954;DHT22;9102;53.548;9.926;2024-02-26T07:59:52;3.90;99.90
17954;DHT22;9102;53.548;9.926;2024-02-26T08:02:20;4.00;99.90
17954;DHT22;9102;53.548;9.926;2024-02-26T08:04:48;4.00;99.90
17954;DHT22;9102;53.548;9.926;2024-02-26T08:07:15;4.10;99.90
17954;DHT22;9102;53.548;9.926;2024-02-26T08:09:42;4.10;99.90
17954;DHT22;9102;53.548;9.926;2024-02-26T08:12:09;4.20;99.90
17954;DHT22;9102;53.548;9.926;2024-02-26T08:14:36;4.20;99.90
17954;DHT22;9102;53.548;9.926;2024-02-26T08:17:03;4.30;99.90
17954;DHT22;9102;53.548;9.926;2024-02-26T08:19:30;4.30;99.90
17954;DHT22;9102;53.548;9.926;2024-02-26T08:21:58;4.30;99.90
17954;DHT22;9102;53.548;9.926;2024-02-26T08:24:25;4.30;99.90
17954;DHT22;9102;53.548;9.926;2024-02-26T08:26:53;4.30;99.90
17954;DHT22;9102;53.548;9.926;2024-02-26T08:29:20;4.30;99.90
17954;DHT22;9102;53.548;9.926;2024-02-26T08:31:47;4.40;99.90
17954;DHT22;9102;53.548;9.926;2024-02-26T08:34:14;4.30;99.90
17954;DHT22;9102;53.548;9.926;2024-02-26T08:36:41;4.40;99.90
17954;DHT22;9102;53.548;9.926;2024-02-26T08:39:10;4.30;99.90
17954;DHT22;9102;53.548;9.926;2024-02-26T08:41:39;4.30;99.90
17954;DHT22;9102;53.548;9.926;2024-02-26T08:44:06;4.40;99.90
17954;DHT22;9102;53.548;9.926;2024-02-26T08:46:32;4.30;99.90
17954;DHT22;9102;53.548;9.926;2024-02-26T08:48:59;4.20;99.90
17954;DHT22;9102;53.548;9.926;2024-02-26T08:51:26;4.30;99.90
17954;DHT22;9102;53.548;9.926;2024-02-26T08:53:53;4.20;99.90
17954;DHT22;9102;53.548;9.926;2024-02-26T08:56:22;4.20;99.90
17954;DHT22;9102;53.548;9.926;2024-02-26T08:58:49;4.20;99.90
17954;DHT22;9102;53.548;9.926;2024-02-26T09:01:19;4.20;99.90
17954;DHT22;9102;53.548;9.926;2024-02-26T09:03:46;4.20;99.90
17954;DHT22;9102;53.548;9.926;2024-02-26T09:06:15;4.20;99.90
17954;DHT22;9102;53.548;9.926;2024-02-26T09:08:42;4.20;99.90
17954;DHT22;9102;53.548;9.926;2024-02-26T09:11:09;4.30;99.90
17954;DHT22;9102;53.548;9.926;2024-02-26T09:13:38;4.40;99.90
17954;DHT22;9102;53.548;9.926;2024-02-26T09:16:05;4.50;99.90
17954;DHT22;9102;53.548;9.926;2024-02-26T09:18:32;4.40;99.90
17954;DHT22;9102;53.548;9.926;2024-02-26T09:20:59;4.50;99.90
17954;DHT22;9102;53.548;9.926;2024-02-26T09:23:30;4.60;99.90
17954;DHT22;9102;53.548;9.926;2024-02-26T09:25:57;4.80;99.90
17954;DHT22;9102;53.548;9.926;2024-02-26T09:28:24;4.80;99.90
17954;DHT22;9102;53.548;9.926;2024-02-26T09:30:52;5.00;99.90
17954;DHT22;9102;53.548;9.926;2024-02-26T09:33:20;5.20;99.90
17954;DHT22;9102;53.548;9.926;2024-02-26T09:35:47;5.20;99.90
17954;DHT22;9102;53.548;9.926;2024-02-26T09:38:15;5.50;99.90
17954;DHT22;9102;53.548;9.926;2024-02-26T09:40:41;5.40;99.90
17954;DHT22;9102;53.548;9.926;2024-02-26T09:43:10;5.40;99.90
17954;DHT22;9102;53.548;9.926;2024-02-26T09:45:41;5.50;99.90
17954;DHT22;9102;53.548;9.926;2024-02-26T09:48:10;5.50;99.90
17954;DHT22;9102;53.548;9.926;2024-02-26T09:50:41;5.50;99.90
17954;DHT22;9102;53.548;9.926;2024-02-26T09:53:09;5.40;99.90
17954;DHT22;9102;53.548;9.926;2024-02-26T09:55:36;5.40;99.90
17954;DHT22;9102;53.548;9.926;2024-02-26T09:58:05;5.30;99.90
17954;DHT22;9102;53.548;9.926;2024-02-26T10:00:37;5.20;99.90
17954;DHT22;9102;53.548;9.926;2024-02-26T10:03:05;5.30;99.90
17954;DHT22;9102;53.548;9.926;2024-02-26T10:05:34;5.30;99.90
17954;DHT22;9102;53.548;9.926;2024-02-26T10:08:01;5.40;99.90
17954;DHT22;9102;53.548;9.926;2024-02-26T10:10:29;5.30;99.90
17954;DHT22;9102;53.548;9.926;2024-02-26T10:12:59;5.30;99.90
17954;DHT22;9102;53.548;9.926;2024-02-26T10:15:27;5.30;99.90
17954;DHT22;9102;53.548;9.926;2024-02-26T10:17:54;5.30;99.90
17954;DHT22;9102;53.548;9.926;2024-02-26T10:20:21;5.30;99.90
17954;DHT22;9102;53.548;9.926;2024-02-26T10:22:50;5.20;99.90
17954;DHT22;9102;53.548;9.926;2024-02-26T10:25:17;5.30;99.90
17954;DHT22;9102;53.548;9.926;2024-02-26T10:27:45;5.30;99.90
17954;DHT22;9102;53.548;9.926;2024-02-26T10:30:17;5.30;99.90
17954;DHT22;9102;53.548;9.926;2024-02-26T10:32:44;5.50;99.90
17954;DHT22;9102;53.548;9.926;2024-02-26T10:35:12;5.50;99.90
17954;DHT22;9102;53.548;9.926;2024-02-26T10:37:40;5.50;99.90
17954;DHT22;9102;53.548;9.926;2024-02-26T10:40:11;5.50;99.90
17954;DHT22;9102;53.548;9.926;2024-02-26T10:42:38;5.50;99.90
17954;DHT22;9102;53.548;9.926;2024-02-26T10:45:06;5.50;99.90
17954;DHT22;9102;53.548;9.926;2024-02-26T10:47:34;5.60;99.90
17954;DHT22;9102;53.548;9.926;2024-02-26T10:50:03;5.60;99.90
17954;DHT22;9102;53.548;9.926;2024-02-26T10:52:31;5.70;99.90
17954;DHT22;9102;53.548;9.926;2024-02-26T10:55:00;5.70;99.90
17954;DHT22;9102;53.548;9.926;2024-02-26T10:57:33;5.80;99.90
17954;DHT22;9102;53.548;9.926;2024-02-26T11:00:04;5.80;99.90
17954;DHT22;9102;53.548;9.926;2024-02-26T11:02:32;5.90;99.90
17954;DHT22;9102;53.548;9.926;2024-02-26T11:05:01;5.90;99.90
17954;DHT22;9102;53.548;9.926;2024-02-26T11:07:30;6.10;99.90
17954;DHT22;9102;53.548;9.926;2024-02-26T11:09:59;6.20;99.90
17954;DHT22;9102;53.548;9.926;2024-02-26T11:12:28;6.20;99.90
17954;DHT22;9102;53.548;9.926;2024-02-26T11:14:58;6.30;99.90
17954;DHT22;9102;53.548;9.926;2024-02-26T11:17:27;6.30;99.90
17954;DHT22;9102;53.548;9.926;2024-02-26T11:19:57;6.20;99.90
17954;DHT22;9102;53.548;9.926;2024-02-26T11:22:25;6.20;99.90
17954;DHT22;9102;53.548;9.926;2024-02-26T11:24:53;6.40;99.90
17954;DHT22;9102;53.548;9.926;2024-02-26T11:27:23;6.50;99.90
17954;DHT22;9102;53.548;9.926;2024-02-26T11:29:52;6.80;99.90
17954;DHT22;9102;53.548;9.926;2024-02-26T11:32:21;6.70;99.90
17954;DHT22;9102;53.548;9.926;2024-02-26T11:34:48;6.70;99.90
17954;DHT22;9102;53.548;9.926;2024-02-26T11:37:17;6.60;99.90
17954;DHT22;9102;53.548;9.926;2024-02-26T11:39:45;6.80;99.90
17954;DHT22;9102;53.548;9.926;2024-02-26T11:42:15;6.80;99.90
17954;DHT22;9102;53.548;9.926;2024-02-26T11:44:42;6.80;99.90
17954;DHT22;9102;53.548;9.926;2024-02-26T11:47:12;6.90;99.90
17954;DHT22;9102;53.548;9.926;2024-02-26T11:49:40;6.80;99.90
17954;DHT22;9102;53.548;9.926;2024-02-26T11:52:08;6.80;99.90
17954;DHT22;9102;53.548;9.926;2024-02-26T11:54:39;6.70;99.90
17954;DHT22;9102;53.548;9.926;2024-02-26T12:11:35;6.90;99.90
17954;DHT22;9102;53.548;9.926;2024-02-26T12:14:03;7.10;99.90
17954;DHT22;9102;53.548;9.926;2024-02-26T12:16:35;7.20;99.90
17954;DHT22;9102;53.548;9.926;2024-02-26T12:19:04;7.30;99.90
17954;DHT22;9102;53.548;9.926;2024-02-26T12:21:33;7.40;99.90
17954;DHT22;9102;53.548;9.926;2024-02-26T12:24:11;7.50;99.90
17954;DHT22;9102;53.548;9.926;2024-02-26T12:26:40;7.60;99.90
17954;DHT22;9102;53.548;9.926;2024-02-26T12:29:07;7.60;99.90
17954;DHT22;9102;53.548;9.926;2024-02-26T12:31:35;7.70;99.90
17954;DHT22;9102;53.548;9.926;2024-02-26T12:34:03;7.60;99.90
17954;DHT22;9102;53.548;9.926;2024-02-26T12:36:30;7.50;99.90
17954;DHT22;9102;53.548;9.926;2024-02-26T12:38:56;7.60;99.90
17954;DHT22;9102;53.548;9.926;2024-02-26T12:41:23;7.60;99.90
17954;DHT22;9102;53.548;9.926;2024-02-26T12:43:53;7.70;99.90
17954;DHT22;9102;53.548;9.926;2024-02-26T12:46:20;7.70;99.90
17954;DHT22;9102;53.548;9.926;2024-02-26T12:48:47;7.60;99.90
17954;DHT22;9102;53.548;9.926;2024-02-26T12:51:15;7.60;99.90
17954;DHT22;9102;53.548;9.926;2024-02-26T12:53:44;7.60;99.90
17954;DHT22;9102;53.548;9.926;2024-02-26T12:56:11;7.60;99.90
17954;DHT22;9102;53.548;9.926;2024-02-26T12:58:39;7.70;99.90
17954;DHT22;9102;53.548;9.926;2024-02-26T13:01:07;7.60;99.90
17954;DHT22;9102;53.548;9.926;2024-02-26T13:03:40;7.60;99.90
17954;DHT22;9102;53.548;9.926;2024-02-26T13:06:08;7.50;99.90
17954;DHT22;9102;53.548;9.926;2024-02-26T13:08:35;7.40;99.90
17954;DHT22;9102;53.548;9.926;2024-02-26T13:11:02;7.50;99.90
17954;DHT22;9102;53.548;9.926;2024-02-26T13:13:29;7.60;99.90
17954;DHT22;9102;53.548;9.926;2024-02-26T13:16:02;7.60;99.90
17954;DHT22;9102;53.548;9.926;2024-02-26T13:18:31;7.40;99.90
17954;DHT22;9102;53.548;9.926;2024-02-26T13:21:09;7.30;99.90
17954;DHT22;9102;53.548;9.926;2024-02-26T13:23:37;7.20;99.90
17954;DHT22;9102;53.548;9.926;2024-02-26T13:26:08;7.20;99.90
17954;DHT22;9102;53.548;9.926;2024-02-26T13:28:35;7.40;99.90
17954;DHT22;9102;53.548;9.926;2024-02-26T13:31:02;7.30;99.90
17954;DHT22;9102;53.548;9.926;2024-02-26T13:33:32;7.30;99.90
17954;DHT22;9102;53.548;9.926;2024-02-26T13:35:59;7.60;99.90
17954;DHT22;9102;53.548;9.926;2024-02-26T13:38:27;7.60;99.90
17954;DHT22;9102;53.548;9.926;2024-02-26T13:40:55;7.80;99.90
17954;DHT22;9102;53.548;9.926;2024-02-26T13:43:22;7.80;99.90
17954;DHT22;9102;53.548;9.926;2024-02-26T13:45:49;7.70;99.90
17954;DHT22;9102;53.548;9.926;2024-02-26T13:48:16;7.60;99.90
17954;DHT22;9102;53.548;9.926;2024-02-26T13:50:44;7.50;99.90
17954;DHT22;9102;53.548;9.926;2024-02-26T13:53:12;7.40;99.90
17954;DHT22;9102;53.548;9.926;2024-02-26T13:55:40;7.30;99.90
17954;DHT22;9102;53.548;9.926;2024-02-26T13:58:08;7.30;99.90
17954;DHT22;9102;53.548;9.926;2024-02-26T14:00:37;7.30;99.90
17954;DHT22;9102;53.548;9.926;2024-02-26T14:03:04;7.40;99.90
17954;DHT22;9102;53.548;9.926;2024-02-26T14:05:31;7.30;99.90
17954;DHT22;9102;53.548;9.926;2024-02-26T14:07:59;7.30;99.90
17954;DHT22;9102;53.548;9.926;2024-02-26T14:10:26;7.40;99.90
17954;DHT22;9102;53.548;9.926;2024-02-26T14:12:53;7.30;99.90
17954;DHT22;9102;53.548;9.926;2024-02-26T14:15:20;7.30;99.90
17954;DHT22;9102;53.548;9.926;2024-02-26T14:17:49;7.20;99.90
17954;DHT22;9102;53.548;9.926;2024-02-26T14:20:20;7.10;99.90
17954;DHT22;9102;53.548;9.926;2024-02-26T14:22:48;7.10;99.90
17954;DHT22;9102;53.548;9.926;2024-02-26T14:25:16;7.10;99.90
17954;DHT22;9102;53.548;9.926;2024-02-26T14:27:44;7.10;99.90
17954;DHT22;9102;53.548;9.926;2024-02-26T14:30:11;7.10;99.90
17954;DHT22;9102;53.548;9.926;2024-02-26T14:32:39;7.10;99.90
17954;DHT22;9102;53.548;9.926;2024-02-26T14:35:07;7.10;99.90
17954;DHT22;9102;53.548;9.926;2024-02-26T14:37:34;7.10;99.90
17954;DHT22;9102;53.548;9.926;2024-02-26T14:40:01;7.00;99.90
17954;DHT22;9102;53.548;9.926;2024-02-26T14:42:30;7.00;99.90
17954;DHT22;9102;53.548;9.926;2024-02-26T14:44:57;6.90;99.90
17954;DHT22;9102;53.548;9.926;2024-02-26T14:47:24;6.90;99.90
17954;DHT22;9102;53.548;9.926;2024-02-26T14:49:51;6.80;99.90
17954;DHT22;9102;53.548;9.926;2024-02-26T14:52:17;6.80;99.90
17954;DHT22;9102;53.548;9.926;2024-02-26T14:54:44;6.80;99.90
17954;DHT22;9102;53.548;9.926;2024-02-26T14:57:11;6.90;99.90
17954;DHT22;9102;53.548;9.926;2024-02-26T14:59:40;6.80;99.90
17954;DHT22;9102;53.548;9.926;2024-02-26T15:02:08;6.80;99.90
17954;DHT22;9102;53.548;9.926;2024-02-26T15:04:36;6.80;99.90
17954;DHT22;9102;53.548;9.926;2024-02-26T15:07:04;6.80;99.90
17954;DHT22;9102;53.548;9.926;2024-02-26T15:09:30;6.80;99.90
17954;DHT22;9102;53.548;9.926;2024-02-26T15:11:57;6.80;99.90
17954;DHT22;9102;53.548;9.926;2024-02-26T15:14:24;6.80;99.90
17954;DHT22;9102;53.548;9.926;2024-02-26T15:16:53;6.90;99.90
17954;DHT22;9102;53.548;9.926;2024-02-26T15:19:20;6.80;99.90
17954;DHT22;9102;53.548;9.926;2024-02-26T15:21:47;6.80;99.90
17954;DHT22;9102;53.548;9.926;2024-02-26T15:24:14;6.80;99.90
17954;DHT22;9102;53.548;9.926;2024-02-26T15:26:43;6.80;99.90
17954;DHT22;9102;53.548;9.926;2024-02-26T15:29:10;6.70;99.90
17954;DHT22;9102;53.548;9.926;2024-02-26T15:31:36;6.70;99.90
17954;DHT22;9102;53.548;9.926;2024-02-26T15:34:04;6.70;99.90
17954;DHT22;9102;53.548;9.926;2024-02-26T15:36:31;6.60;99.90
17954;DHT22;9102;53.548;9.926;2024-02-26T15:38:58;6.60;99.90
17954;DHT22;9102;53.548;9.926;2024-02-26T15:41:25;6.60;99.90
17954;DHT22;9102;53.548;9.926;2024-02-26T15:43:52;6.50;99.90
17954;DHT22;9102;53.548;9.926;2024-02-26T15:46:19;6.50;99.90
17954;DHT22;9102;53.548;9.926;2024-02-26T15:48:46;6.50;99.90
17954;DHT22;9102;53.548;9.926;2024-02-26T15:51:21;6.50;99.90
17954;DHT22;9102;53.548;9.926;2024-02-26T15:53:49;6.40;99.90
17954;DHT22;9102;53.548;9.926;2024-02-26T15:56:19;6.40;99.90
17954;DHT22;9102;53.548;9.926;2024-02-26T15:58:49;6.50;99.90
17954;DHT22;9102;53.548;9.926;2024-02-26T16:01:16;6.30;99.90
17954;DHT22;9102;53.548;9.926;2024-02-26T16:03:43;6.30;99.90
17954;DHT22;9102;53.548;9.926;2024-02-26T16:06:16;6.30;99.90
17954;DHT22;9102;53.548;9.926;2024-02-26T16:08:46;6.30;99.90
17954;DHT22;9102;53.548;9.926;2024-02-26T16:11:13;6.30;99.90
17954;DHT22;9102;53.548;9.926;2024-02-26T16:13:40;6.20;99.90
17954;DHT22;9102;53.548;9.926;2024-02-26T16:16:12;6.10;99.90
17954;DHT22;9102;53.548;9.926;2024-02-26T16:18:41;6.00;99.90